Time;durP1;ratioP1;P1;durP2;ratioP2;P2;SDS_P1;SDS_P2;PMS_P1;PMS_P2;Temp;Humidity;BMP_temperature;BMP_pressure;BME280_temperature;BME280_humidity;BME280_pressure;Samples;Min_cycle;Max_cycle;Signal;HPM_P1;HPM_P2
2022/05/19 00:01:51;;;;;;;10.88;3.80;;;6.90;99.90;212.10;228463.00;;;;5079078;28;20284;-56
2022/05/19 00:04:18;;;;;;;9.27;3.60;;;7.00;99.90;212.10;228463.00;;;;5063786;28;20963;-55
2022/05/19 00:06:44;;;;;;;6.10;3.85;;;7.10;99.90;212.10;228463.00;;;;5063992;28;20123;-58
2022/05/19 00:09:11;;;;;;;4.35;3.17;;;7.20;99.90;212.10;228463.00;;;;5063638;28;20045;-56
2022/05/19 00:11:38;;;;;;;6.97;3.53;;;7.20;99.90;212.10;228463.00;;;;5066389;28;20590;-57
2022/05/19 00:14:04;;;;;;;6.07;3.35;;;7.30;99.90;212.10;228463.00;;;;5068082;28;20372;-57
2022/05/19 00:16:32;;;;;;;7.70;3.40;;;7.30;99.90;212.10;228463.00;;;;5063943;28;20037;-56
2022/05/19 00:18:58;;;;;;;5.45;3.33;;;7.30;99.90;212.10;228463.00;;;;5063786;28;20494;-55
2022/05/19 00:21:25;;;;;;;5.90;3.35;;;7.30;99.90;212.10;228463.00;;;;5063132;28;20049;-57
2022/05/19 00:23:51;;;;;;;6.85;3.53;;;7.30;99.90;212.10;228463.00;;;;5079407;28;20033;-56
2022/05/19 00:26:17;;;;;;;5.65;3.65;;;7.20;99.90;212.10;228463.00;;;;5063032;28;20452;-56
2022/05/19 00:28:44;;;;;;;9.52;3.35;;;7.20;99.90;212.10;228463.00;;;;5062818;28;20083;-56
2022/05/19 00:31:10;;;;;;;4.65;3.13;;;7.20;99.90;212.10;228463.00;;;;5062727;28;20067;-57
2022/05/19 00:33:37;;;;;;;7.38;3.50;;;7.20;99.90;212.10;228463.00;;;;5063725;28;20045;-55
2022/05/19 00:36:13;;;;;;;7.20;3.22;;;7.20;99.90;212.10;228463.00;;;;5063347;28;20033;-57
2022/05/19 00:38:39;;;;;;;6.90;3.50;;;7.20;99.90;212.10;228463.00;;;;5060778;28;20033;-54
2022/05/19 00:41:06;;;;;;;6.88;3.33;;;7.20;99.90;212.10;228463.00;;;;5063466;28;20045;-59
2022/05/19 00:43:40;;;;;;;4.20;2.92;;;7.20;99.90;212.10;228463.00;;;;5063586;28;20048;-55
2022/05/19 00:46:21;;;;;;;5.95;3.55;;;7.20;99.90;212.10;228463.00;;;;5045515;28;20048;-58
2022/05/19 00:49:10;;;;;;;8.38;3.35;;;7.10;99.90;212.10;228463.00;;;;5063028;28;20026;-57
2022/05/19 00:52:07;;;;;;;8.07;2.92;;;7.20;99.90;212.10;228463.00;;;;5061651;28;20041;-56
2022/05/19 00:54:40;;;;;;;6.55;2.90;;;7.20;99.90;212.10;228463.00;;;;5059453;28;20053;-54
2022/05/19 00:57:10;;;;;;;5.65;3.10;;;7.20;99.90;212.10;228463.00;;;;5060315;28;20112;-57
2022/05/19 00:59:44;;;;;;;4.18;2.85;;;7.20;99.90;212.10;228463.00;;;;5062691;28;20742;-56
2022/05/19 01:02:16;;;;;;;6.38;3.10;;;7.30;99.90;212.10;228463.00;;;;5062491;28;20092;-58
2022/05/19 01:05:06;;;;;;;4.22;2.97;;;7.30;99.90;212.10;228463.00;;;;5062355;28;20034;-55
2022/05/19 01:07:47;;;;;;;4.45;2.90;;;7.20;99.90;212.10;228463.00;;;;5062937;28;20034;-56
2022/05/19 01:10:14;;;;;;;5.57;2.97;;;7.20;99.90;212.10;228463.00;;;;5062831;28;20040;-57
2022/05/19 01:12:46;;;;;;;5.40;2.92;;;7.10;99.90;212.10;228463.00;;;;5061688;28;20068;-58
2022/05/19 01:15:13;;;;;;;5.43;2.78;;;7.00;99.90;212.10;228463.00;;;;5062066;28;20046;-57
2022/05/19 01:17:40;;;;;;;3.97;2.83;;;7.00;99.90;212.10;228463.00;;;;5061712;28;20057;-57
2022/05/19 01:20:24;;;;;;;4.90;2.90;;;6.90;99.90;212.10;228463.00;;;;5063032;28;20042;-57
2022/05/19 01:22:55;;;;;;;5.22;3.00;;;6.90;99.90;212.10;228463.00;;;;5062105;28;20043;-57
2022/05/19 01:25:50;;;;;;;5.47;2.97;;;6.90;99.90;212.10;228463.00;;;;5062765;28;20041;-58
2022/05/19 01:28:17;;;;;;;5.68;3.00;;;7.00;99.90;212.10;228463.00;;;;5062803;28;20048;-58
2022/05/19 01:30:44;;;;;;;5.95;2.88;;;7.10;99.90;212.10;228463.00;;;;5062309;28;20128;-54
2022/05/19 01:33:11;;;;;;;6.53;2.95;;;7.10;99.90;212.10;228463.00;;;;5062803;28;20137;-56
2022/05/19 01:35:38;;;;;;;6.13;3.30;;;7.20;99.90;212.10;228463.00;;;;5044964;28;20057;-56
2022/05/19 01:38:15;;;;;;;9.38;3.03;;;7.30;99.90;212.10;228463.00;;;;5061865;28;20114;-55
2022/05/19 01:41:14;;;;;;;4.93;2.53;;;7.40;99.90;212.10;228463.00;;;;5061535;28;20037;-56
2022/05/19 01:43:52;;;;;;;8.05;3.00;;;7.50;99.90;212.10;228463.00;;;;5061428;28;20187;-54
2022/05/19 01:46:33;;;;;;;7.80;2.72;;;7.50;99.90;212.10;228463.00;;;;5061246;28;20120;-58
2022/05/19 01:49:22;;;;;;;3.78;2.25;;;7.60;99.90;212.10;228463.00;;;;5058009;28;20033;-57
2022/05/19 01:52:14;;;;;;;4.43;2.80;;;7.70;99.90;212.10;228463.00;;;;5076963;28;20092;-56
2022/05/19 01:55:18;;;;;;;4.25;2.92;;;7.70;99.90;212.10;228463.00;;;;5058622;28;20052;-57
2022/05/19 01:57:55;;;;;;;5.63;2.58;;;7.80;99.90;212.10;228463.00;;;;5060396;28;20783;-56
2022/05/19 02:00:25;;;;;;;3.13;2.47;;;7.80;99.90;212.10;228463.00;;;;5061324;28;20139;-55
2022/05/19 02:02:58;;;;;;;4.20;2.40;;;7.90;99.90;212.10;228463.00;;;;5061835;28;20101;-57
2022/05/19 02:06:04;;;;;;;5.00;2.40;;;8.00;99.90;212.10;228463.00;;;;5062525;28;20037;-55
2022/05/19 02:08:58;;;;;;;3.80;2.50;;;8.00;99.90;212.10;228463.00;;;;5056953;28;20584;-57
2022/05/19 02:11:41;;;;;;;4.30;2.60;;;8.10;99.90;212.10;228463.00;;;;5061093;28;20464;-58
2022/05/19 02:14:13;;;;;;;5.63;2.50;;;8.10;99.90;212.10;228463.00;;;;5062716;28;20060;-58
2022/05/19 02:16:42;;;;;;;4.00;2.53;;;8.10;99.90;212.10;228463.00;;;;5061152;28;20045;-58
2022/05/19 02:19:12;;;;;;;5.30;2.70;;;8.20;99.90;212.10;228463.00;;;;5061917;28;20049;-57
2022/05/19 02:21:38;;;;;;;4.65;2.60;;;8.20;99.90;212.10;228463.00;;;;5060599;28;20049;-58
2022/05/19 02:24:06;;;;;;;4.70;2.13;;;8.20;99.90;212.10;228463.00;;;;5061921;28;20468;-56
2022/05/19 02:26:36;;;;;;;8.85;2.45;;;8.30;99.90;212.10;228463.00;;;;5062376;28;20046;-55
2022/05/19 02:29:08;;;;;;;5.43;2.33;;;8.30;99.90;212.10;228463.00;;;;5077530;28;20097;-55
2022/05/19 02:31:35;;;;;;;5.05;2.85;;;8.40;99.90;212.10;228463.00;;;;5061270;28;20041;-54
2022/05/19 02:34:02;;;;;;;5.05;2.42;;;8.40;99.90;212.10;228463.00;;;;5061154;28;20033;-55
2022/05/19 02:36:29;;;;;;;2.97;2.13;;;8.40;99.90;212.10;228463.00;;;;5061561;28;20056;-55
2022/05/19 02:38:55;;;;;;;8.35;2.45;;;8.50;99.90;212.10;228463.00;;;;5061522;28;20661;-57
2022/05/19 02:41:21;;;;;;;5.80;2.70;;;8.50;99.90;212.10;228463.00;;;;5062048;28;20041;-55
2022/05/19 02:43:47;;;;;;;3.67;2.40;;;8.50;99.90;212.10;228463.00;;;;5060591;28;20033;-56
2022/05/19 02:46:14;;;;;;;4.25;2.20;;;8.60;99.90;212.10;228463.00;;;;5062124;28;20554;-56
2022/05/19 02:48:40;;;;;;;7.80;2.28;;;8.50;99.90;212.10;228463.00;;;;5060579;28;20033;-56
2022/05/19 02:51:06;;;;;;;5.45;2.60;;;8.50;99.90;212.10;228463.00;;;;5059837;28;20038;-56
2022/05/19 02:53:32;;;;;;;5.13;2.50;;;8.50;99.90;212.10;228463.00;;;;5061036;28;20041;-55
2022/05/19 02:55:59;;;;;;;3.83;2.53;;;8.50;99.90;212.10;228463.00;;;;5061043;28;20057;-54
2022/05/19 02:58:25;;;;;;;3.33;2.50;;;8.50;99.90;212.10;228463.00;;;;5063396;28;20104;-55
2022/05/19 03:00:51;;;;;;;6.15;2.60;;;8.60;99.90;212.10;228463.00;;;;5077777;28;20040;-56
2022/05/19 03:03:19;;;;;;;5.43;2.28;;;8.70;99.90;212.10;228463.00;;;;5081929;28;20029;-55
2022/05/19 03:05:45;;;;;;;8.57;2.60;;;8.70;99.90;212.10;228463.00;;;;5061722;28;20045;-54
2022/05/19 03:08:12;;;;;;;5.10;2.40;;;8.90;99.90;212.10;228463.00;;;;5060435;28;20056;-56
2022/05/19 03:10:42;;;;;;;5.70;2.20;;;9.00;99.90;212.10;228463.00;;;;5061380;28;20049;-55
2022/05/19 03:13:17;;;;;;;6.65;2.13;;;9.10;99.90;212.10;228463.00;;;;5057576;28;20443;-55
2022/05/19 03:15:44;;;;;;;4.15;2.30;;;9.30;99.90;212.10;228463.00;;;;5060129;28;20102;-57
2022/05/19 03:18:11;;;;;;;8.23;2.50;;;9.50;99.90;212.10;228463.00;;;;5060004;28;20051;-58
2022/05/19 03:20:38;;;;;;;3.60;2.38;;;9.50;99.90;212.10;228463.00;;;;5063365;28;20048;-58
2022/05/19 03:23:04;;;;;;;5.75;2.50;;;9.50;99.90;212.10;228463.00;;;;5064163;28;20136;-57
2022/05/19 03:25:30;;;;;;;4.47;2.67;;;9.50;99.90;212.10;228463.00;;;;5064545;28;20049;-55
2022/05/19 03:27:57;;;;;;;8.50;2.75;;;9.50;99.90;212.10;228463.00;;;;5063967;28;20045;-56
2022/05/19 03:30:23;;;;;;;5.80;2.63;;;9.50;99.90;212.10;228463.00;;;;5064580;28;20399;-56
2022/05/19 03:32:49;;;;;;;5.68;2.20;;;9.40;99.90;212.10;228463.00;;;;5064940;28;20044;-56
2022/05/19 03:35:16;;;;;;;8.18;2.38;;;9.50;99.90;212.10;228463.00;;;;5063585;28;20049;-56
2022/05/19 03:37:44;;;;;;;4.72;2.55;;;9.50;99.90;212.10;228463.00;;;;5062993;28;20037;-57
2022/05/19 03:40:12;;;;;;;5.75;2.42;;;9.50;99.90;212.10;228463.00;;;;5063857;28;20034;-55
2022/05/19 03:42:39;;;;;;;13.77;2.90;;;9.50;99.90;212.10;228463.00;;;;5064562;28;20048;-57
2022/05/19 03:45:06;;;;;;;5.85;2.10;;;9.50;99.90;212.10;228463.00;;;;5062959;28;20077;-55
2022/05/19 03:47:32;;;;;;;4.55;2.42;;;9.60;99.90;212.10;228463.00;;;;5062283;28;20687;-57
2022/05/19 03:49:59;;;;;;;6.95;2.30;;;9.60;99.90;212.10;228463.00;;;;5062827;28;20120;-56
2022/05/19 03:52:25;;;;;;;7.05;1.98;;;9.70;99.90;212.10;228463.00;;;;5063617;28;20095;-56
2022/05/19 03:54:53;;;;;;;7.35;2.50;;;9.80;99.90;212.10;228463.00;;;;5078989;28;20049;-56
2022/05/19 03:57:21;;;;;;;4.72;2.28;;;9.80;99.90;212.10;228463.00;;;;5062977;28;20480;-56
2022/05/19 03:59:49;;;;;;;6.35;2.60;;;9.80;99.90;212.10;228463.00;;;;5066212;28;20051;-58
2022/05/19 04:02:15;;;;;;;5.28;2.50;;;9.80;99.90;212.10;228463.00;;;;5059885;28;20045;-57
2022/05/19 04:04:42;;;;;;;7.38;3.47;;;9.80;99.90;212.10;228463.00;;;;5045655;28;20443;-55
2022/05/19 04:07:09;;;;;;;4.60;2.35;;;9.70;99.90;212.10;228463.00;;;;5063526;28;20083;-58
2022/05/19 04:09:35;;;;;;;4.13;2.25;;;9.70;99.90;212.10;228463.00;;;;5062692;28;20049;-57
2022/05/19 04:12:01;;;;;;;6.82;1.95;;;9.70;99.90;212.10;228463.00;;;;5063456;28;20087;-57
2022/05/19 04:14:30;;;;;;;6.00;2.30;;;9.80;99.90;212.10;228463.00;;;;5063115;28;20452;-57
2022/05/19 04:16:56;;;;;;;8.68;2.28;;;9.70;99.90;212.10;228463.00;;;;5062342;28;20045;-57
2022/05/19 04:19:22;;;;;;;5.47;2.30;;;9.80;99.90;212.10;228463.00;;;;5062950;28;20778;-57
2022/05/19 04:21:48;;;;;;;5.70;2.42;;;9.80;99.90;212.10;228463.00;;;;5062981;28;20061;-57
2022/05/19 04:24:16;;;;;;;8.82;2.58;;;9.80;99.90;212.10;228463.00;;;;5062491;28;20042;-55
2022/05/19 04:26:42;;;;;;;6.93;2.38;;;9.80;99.90;212.10;228463.00;;;;5062142;28;20042;-60
2022/05/19 04:29:09;;;;;;;4.88;2.10;;;9.80;99.90;212.10;228463.00;;;;5062911;28;20882;-60
2022/05/19 04:31:35;;;;;;;7.10;2.83;;;9.90;99.90;212.10;228463.00;;;;5063238;28;21090;-60
2022/05/19 04:34:04;;;;;;;8.10;2.30;;;10.00;99.90;212.10;228463.00;;;;5062717;28;20116;-58
2022/05/19 04:36:30;;;;;;;6.63;3.00;;;10.30;99.90;212.10;228463.00;;;;5062647;28;20125;-60
2022/05/19 04:38:57;;;;;;;9.32;2.55;;;10.50;99.90;212.10;228463.00;;;;5062739;28;20029;-58
2022/05/19 04:41:23;;;;;;;6.53;2.80;;;10.70;99.90;212.10;228463.00;;;;5062828;28;20624;-59
2022/05/19 04:43:49;;;;;;;7.25;2.75;;;10.60;99.90;212.10;228463.00;;;;5078304;28;20057;-59
2022/05/19 04:46:15;;;;;;;4.63;2.65;;;10.50;99.90;212.10;228463.00;;;;5061826;28;20041;-58
2022/05/19 04:48:41;;;;;;;5.95;2.50;;;10.50;99.90;212.10;228463.00;;;;5062221;28;20045;-58
2022/05/19 04:51:07;;;;;;;5.00;2.63;;;10.70;99.90;212.10;228463.00;;;;5062029;28;20553;-59
2022/05/19 04:53:34;;;;;;;6.60;2.33;;;10.70;99.90;212.10;228463.00;;;;5064969;28;20045;-60
2022/05/19 04:56:00;;;;;;;4.70;2.40;;;10.70;99.90;212.10;228463.00;;;;5062250;28;20057;-60
2022/05/19 04:58:27;;;;;;;6.03;2.67;;;10.90;99.90;212.10;228463.00;;;;5065177;28;20508;-60
2022/05/19 05:00:53;;;;;;;4.80;2.38;;;10.90;99.90;212.10;228463.00;;;;5067412;28;20128;-59
2022/05/19 05:03:20;;;;;;;5.28;2.10;;;10.80;99.90;212.10;228463.00;;;;5063234;28;20025;-57
2022/05/19 05:05:47;;;;;;;4.45;2.10;;;10.80;99.90;212.10;228463.00;;;;5062984;28;20526;-58
2022/05/19 05:08:13;;;;;;;6.97;2.60;;;10.60;99.90;212.10;228463.00;;;;5062585;28;20025;-55
2022/05/19 05:10:41;;;;;;;3.67;2.03;;;10.60;99.90;212.10;228463.00;;;;5061204;28;20041;-58
2022/05/19 05:13:10;;;;;;;5.38;2.40;;;10.40;99.90;212.10;228463.00;;;;5062656;28;20459;-58
2022/05/19 05:15:38;;;;;;;5.07;2.53;;;10.30;99.90;212.10;228463.00;;;;5062319;28;20482;-56
2022/05/19 05:18:05;;;;;;;7.50;2.40;;;10.00;99.90;212.10;228463.00;;;;5061008;28;20522;-56
2022/05/19 05:20:33;;;;;;;3.53;2.40;;;9.90;99.90;212.10;228463.00;;;;5060938;28;20043;-59
2022/05/19 05:22:59;;;;;;;6.25;2.67;;;9.80;99.90;212.10;228463.00;;;;5061694;28;20064;-58
2022/05/19 05:25:29;;;;;;;4.03;2.50;;;9.70;99.90;212.10;228463.00;;;;5040603;28;20049;-58
2022/05/19 05:27:57;;;;;;;8.00;2.42;;;9.80;99.90;212.10;228463.00;;;;5058201;28;20487;-57
2022/05/19 05:30:24;;;;;;;5.93;2.72;;;10.00;99.90;212.10;228463.00;;;;5061264;28;20487;-57
2022/05/19 05:32:51;;;;;;;10.40;2.90;;;10.10;99.90;212.10;228463.00;;;;5061805;28;20577;-58
2022/05/19 05:35:17;;;;;;;4.72;2.45;;;10.00;99.90;212.10;228463.00;;;;5061445;28;20103;-58
2022/05/19 05:37:44;;;;;;;3.55;2.65;;;9.80;99.90;212.10;228463.00;;;;5059169;28;20029;-57
2022/05/19 05:40:11;;;;;;;4.75;2.75;;;9.80;99.90;212.10;228463.00;;;;5061596;28;20120;-57
2022/05/19 05:42:39;;;;;;;4.63;2.47;;;9.80;99.90;212.10;228463.00;;;;5060563;28;20045;-58
2022/05/19 05:45:07;;;;;;;3.65;2.47;;;9.90;99.90;212.10;228463.00;;;;5061519;28;20041;-58
2022/05/19 05:47:33;;;;;;;4.43;2.42;;;9.90;99.90;212.10;228463.00;;;;5061260;28;20132;-58
2022/05/19 05:50:00;;;;;;;3.58;2.10;;;9.90;99.90;212.10;228463.00;;;;5076659;28;20057;-58
2022/05/19 05:52:26;;;;;;;6.68;2.55;;;9.70;99.90;212.10;228463.00;;;;5070834;28;20048;-59
2022/05/19 05:54:53;;;;;;;4.25;2.20;;;9.80;99.90;212.10;228463.00;;;;5069200;28;20049;-57
2022/05/19 05:57:19;;;;;;;5.05;2.42;;;9.80;99.90;212.10;228463.00;;;;5061339;28;20072;-58
2022/05/19 05:59:45;;;;;;;4.70;2.33;;;9.80;99.90;212.10;228463.00;;;;5063643;28;20045;-54
2022/05/19 06:02:12;;;;;;;3.50;2.40;;;9.90;99.90;212.10;228463.00;;;;5061643;28;20041;-57
2022/05/19 06:04:39;;;;;;;6.70;2.40;;;9.90;99.90;212.10;228463.00;;;;5061458;28;20033;-56
2022/05/19 06:07:05;;;;;;;6.75;2.38;;;10.20;99.90;212.10;228463.00;;;;5061292;28;20029;-58
2022/05/19 06:09:31;;;;;;;4.85;2.65;;;10.20;99.90;212.10;228463.00;;;;5074155;28;20120;-55
2022/05/19 06:11:58;;;;;;;3.63;2.10;;;10.40;99.90;212.10;228463.00;;;;5066999;28;20032;-56
2022/05/19 06:14:24;;;;;;;5.35;2.13;;;10.60;99.90;212.10;228463.00;;;;5062042;28;20560;-56
2022/05/19 06:16:50;;;;;;;5.57;2.53;;;10.70;99.90;212.10;228463.00;;;;5061514;28;20063;-56
2022/05/19 06:19:18;;;;;;;4.40;2.30;;;10.80;99.90;212.10;228463.00;;;;5060130;28;20040;-56
2022/05/19 06:21:44;;;;;;;5.40;2.20;;;11.00;99.90;212.10;228463.00;;;;5060166;28;20093;-52
2022/05/19 06:24:10;;;;;;;6.55;2.20;;;11.30;99.90;212.10;228463.00;;;;5060061;28;20038;-57
2022/05/19 06:26:39;;;;;;;5.32;2.70;;;11.20;99.90;212.10;228463.00;;;;5060024;28;20057;-56
2022/05/19 06:29:07;;;;;;;3.20;1.95;;;11.20;99.90;212.10;228463.00;;;;5060645;28;20049;-58
2022/05/19 06:31:34;;;;;;;5.03;2.28;;;11.20;99.90;212.10;228463.00;;;;5061160;28;20044;-59
2022/05/19 06:34:01;;;;;;;7.63;2.58;;;11.20;99.90;212.10;228463.00;;;;5061311;28;20042;-58
2022/05/19 06:36:27;;;;;;;8.88;2.03;;;11.20;99.90;212.10;228463.00;;;;5060895;28;20103;-54
2022/05/19 06:38:54;;;;;;;4.90;2.05;;;11.30;99.90;212.10;228463.00;;;;5060489;28;20038;-57
2022/05/19 06:44:05;;;;;;;8.10;2.30;;;11.20;99.90;212.10;228463.00;;;;5058802;28;20038;-59
2022/05/19 06:46:31;;;;;;;8.02;3.63;;;11.20;99.90;212.10;228463.00;;;;5060719;28;20030;-57
2022/05/19 06:49:02;;;;;;;17.17;4.72;;;11.30;99.90;212.10;228463.00;;;;5059558;28;20568;-57
2022/05/19 06:51:32;;;;;;;4.60;2.20;;;11.50;99.90;212.10;228463.00;;;;5057707;28;20874;-58
2022/05/19 06:53:59;;;;;;;4.85;2.10;;;11.50;99.90;212.10;228463.00;;;;5061951;28;20049;-57
2022/05/19 06:56:25;;;;;;;3.88;1.75;;;11.50;99.90;212.10;228463.00;;;;5064517;28;20033;-58
2022/05/19 06:58:52;;;;;;;6.65;1.88;;;11.60;99.90;212.10;228463.00;;;;5064176;28;20037;-58
2022/05/19 07:01:18;;;;;;;7.57;2.03;;;11.60;99.90;212.10;228463.00;;;;5065374;28;20076;-57
2022/05/19 07:03:44;;;;;;;5.05;1.90;;;11.60;99.90;212.10;228463.00;;;;5064623;28;20029;-57
2022/05/19 07:06:10;;;;;;;4.82;2.10;;;11.70;99.90;212.10;228463.00;;;;5064318;28;20037;-58
2022/05/19 07:08:38;;;;;;;7.45;2.17;;;11.70;99.90;212.10;228463.00;;;;5061987;28;20114;-57
2022/05/19 07:11:06;;;;;;;5.50;2.17;;;11.60;99.90;212.10;228463.00;;;;5064374;28;20048;-58
2022/05/19 07:13:32;;;;;;;4.53;2.10;;;11.50;99.90;212.10;228463.00;;;;5064044;28;20037;-56
2022/05/19 07:15:59;;;;;;;6.25;2.17;;;11.40;99.90;212.10;228463.00;;;;5079150;28;20111;-56
2022/05/19 07:18:26;;;;;;;7.15;2.20;;;11.30;99.90;212.10;228463.00;;;;5064199;28;20697;-58
2022/05/19 07:20:52;;;;;;;8.98;2.80;;;11.20;99.90;212.10;228463.00;;;;5063843;28;20107;-54
2022/05/19 07:23:24;;;;;;;4.03;2.20;;;11.20;99.90;212.10;228463.00;;;;5063197;28;20033;-56
2022/05/19 07:25:51;;;;;;;4.00;2.10;;;11.30;99.90;212.10;228463.00;;;;5061003;28;20103;-55
2022/05/19 07:28:20;;;;;;;7.68;2.53;;;11.30;99.90;212.10;228463.00;;;;5063552;28;20731;-56
2022/05/19 07:30:48;;;;;;;5.55;2.15;;;11.30;99.90;212.10;228463.00;;;;5063890;28;20084;-57
2022/05/19 07:33:16;;;;;;;4.07;2.00;;;11.20;99.90;212.10;228463.00;;;;5063374;28;20037;-56
2022/05/19 07:35:46;;;;;;;6.72;2.33;;;11.30;99.90;212.10;228463.00;;;;5063797;28;20041;-55
2022/05/19 07:38:16;;;;;;;7.85;2.35;;;11.10;99.90;212.10;228463.00;;;;5057755;28;20387;-59
2022/05/19 07:40:44;;;;;;;5.00;3.00;;;11.20;99.90;212.10;228463.00;;;;5063051;28;20576;-57
2022/05/19 07:45:57;;;;;;;3.95;2.60;;;11.50;99.90;212.10;228463.00;;;;5062379;28;20128;-57
2022/05/19 07:48:24;;;;;;;7.22;2.20;;;11.40;99.90;212.10;228463.00;;;;5062896;28;20044;-56
2022/05/19 07:50:50;;;;;;;5.00;2.65;;;11.60;99.90;212.10;228463.00;;;;5063110;28;20030;-56
2022/05/19 07:53:16;;;;;;;4.63;2.35;;;11.70;99.90;212.10;228463.00;;;;5061782;28;20049;-56
2022/05/19 07:55:43;;;;;;;5.45;2.38;;;11.80;99.90;212.10;228463.00;;;;5063711;28;20735;-62
2022/05/19 07:58:10;;;;;;;6.18;2.13;;;11.40;99.90;212.10;228463.00;;;;5057675;28;20048;-64
2022/05/19 08:00:38;;;;;;;7.03;2.55;;;11.20;99.90;212.10;228463.00;;;;5046122;28;20675;-62
2022/05/19 08:03:07;;;;;;;2.75;1.90;;;11.10;99.90;212.10;228463.00;;;;5059748;28;20429;-58
2022/05/19 08:05:33;;;;;;;3.50;2.30;;;11.20;99.90;212.10;228463.00;;;;5059867;28;20038;-55
2022/05/19 08:07:59;;;;;;;6.40;2.60;;;11.20;99.90;212.10;228463.00;;;;5062471;28;20087;-57
2022/05/19 08:10:26;;;;;;;2.97;1.77;;;11.40;99.90;212.10;228463.00;;;;5078740;28;20112;-59
2022/05/19 08:15:46;;;;;;;6.15;2.15;;;11.50;99.90;212.10;228463.00;;;;5061795;28;20116;-55
2022/05/19 08:18:21;;;;;;;6.63;2.67;;;11.30;99.90;212.10;228463.00;;;;5062425;28;20044;-59
2022/05/19 08:20:53;;;;;;;6.95;2.38;;;11.30;99.90;212.10;228463.00;;;;5028707;28;20478;-63
2022/05/19 08:23:24;;;;;;;9.25;2.60;;;11.40;99.90;212.10;228463.00;;;;5042588;28;20042;-56
2022/05/19 08:25:52;;;;;;;4.88;2.13;;;11.10;99.90;212.10;228463.00;;;;5044244;28;20551;-61
2022/05/19 08:28:19;;;;;;;11.00;2.58;;;11.00;99.90;212.10;228463.00;;;;5040760;28;20037;-58
2022/05/19 08:30:51;;;;;;;6.60;2.92;;;11.00;99.90;212.10;228463.00;;;;5062572;28;20037;-62
2022/05/19 08:33:20;;;;;;;6.57;3.28;;;11.00;99.90;212.10;228463.00;;;;5029458;28;20038;-62
2022/05/19 08:35:47;;;;;;;9.85;3.17;;;11.00;99.90;212.10;228463.00;;;;5010352;28;20832;-56
2022/05/19 08:38:13;;;;;;;5.00;2.90;;;11.30;99.90;212.10;228463.00;;;;5061319;28;20049;-59
2022/05/19 08:40:58;;;;;;;11.10;3.42;;;11.40;99.90;212.10;228463.00;;;;5062517;28;20041;-58
2022/05/19 08:43:34;;;;;;;8.02;3.00;;;11.60;99.90;212.10;228463.00;;;;5058984;28;20705;-61
2022/05/19 08:46:04;;;;;;;9.38;3.22;;;11.60;99.90;212.10;228463.00;;;;5044412;28;20124;-60
2022/05/19 08:48:31;;;;;;;7.93;3.25;;;11.70;99.90;212.10;228463.00;;;;5027782;28;20067;-58
2022/05/19 08:51:05;;;;;;;6.97;2.90;;;12.10;99.90;212.10;228463.00;;;;5060789;28;20452;-62
2022/05/19 08:53:36;;;;;;;11.07;3.40;;;12.50;99.90;212.10;228463.00;;;;5067078;28;20081;-57
2022/05/19 08:56:17;;;;;;;7.97;2.83;;;12.70;99.90;212.10;228463.00;;;;5048271;28;20476;-60
2022/05/19 08:58:54;;;;;;;9.50;2.78;;;12.80;99.90;212.10;228463.00;;;;5045492;28;20468;-57
2022/05/19 09:02:01;;;;;;;8.55;3.47;;;12.90;99.90;212.10;228463.00;;;;5061791;28;20041;-58
2022/05/19 09:05:00;;;;;;;5.78;2.70;;;13.10;99.90;212.10;228463.00;;;;5053490;28;20091;-57
2022/05/19 09:07:58;;;;;;;3.83;2.45;;;13.20;99.90;212.10;228463.00;;;;5053743;28;20489;-59
2022/05/19 09:10:59;;;;;;;7.53;3.10;;;13.40;99.90;212.10;228463.00;;;;5037650;28;20060;-57
2022/05/19 09:13:51;;;;;;;5.85;2.33;;;13.70;99.90;212.10;228463.00;;;;5051801;28;20068;-58
2022/05/19 09:16:38;;;;;;;7.60;2.40;;;13.60;99.90;212.10;228463.00;;;;5043748;28;20050;-59
2022/05/19 09:19:42;;;;;;;5.45;2.30;;;13.60;99.90;212.10;228463.00;;;;5045166;28;20044;-61
2022/05/19 09:22:14;;;;;;;6.85;2.90;;;13.70;99.90;212.10;228463.00;;;;5052679;28;20111;-60
2022/05/19 09:24:45;;;;;;;5.97;2.30;;;13.80;99.90;212.10;228463.00;;;;5042927;28;20135;-58
2022/05/19 09:27:12;;;;;;;11.27;2.90;;;13.70;99.90;212.10;228463.00;;;;5043075;28;20045;-58
2022/05/19 09:29:52;;;;;;;5.78;2.53;;;13.60;99.90;212.10;228463.00;;;;5045632;28;20464;-58
2022/05/19 09:32:39;;;;;;;7.85;2.35;;;13.70;99.90;212.10;228463.00;;;;5042367;28;20045;-56
2022/05/19 09:35:18;;;;;;;5.05;2.13;;;13.70;99.90;212.10;228463.00;;;;5041891;28;20037;-57
2022/05/19 09:38:01;;;;;;;7.53;2.75;;;14.00;99.90;212.10;228463.00;;;;5047765;28;20149;-61
2022/05/19 09:40:33;;;;;;;4.72;2.45;;;14.10;99.90;212.10;228463.00;;;;5046609;28;20038;-59
2022/05/19 09:43:21;;;;;;;4.53;2.15;;;14.30;99.90;212.10;228463.00;;;;5052903;28;20041;-59
2022/05/19 09:45:58;;;;;;;7.38;3.05;;;14.50;99.90;212.10;228463.00;;;;5052607;28;20132;-60
2022/05/19 09:48:33;;;;;;;7.57;2.90;;;14.40;99.90;212.10;228463.00;;;;5050348;28;20065;-60
2022/05/19 09:51:09;;;;;;;5.95;2.20;;;14.40;99.90;212.10;228463.00;;;;5050618;28;20038;-59
2022/05/19 09:53:53;;;;;;;5.07;2.33;;;14.10;99.90;212.10;228463.00;;;;5048417;28;20452;-60
2022/05/19 09:56:23;;;;;;;4.50;2.25;;;13.90;99.90;212.10;228463.00;;;;5041857;28;20457;-62
2022/05/19 09:58:53;;;;;;;6.20;2.35;;;;;212.10;228463.00;;;;5044729;28;20045;-59
2022/05/19 10:01:25;;;;;;;6.63;2.70;;;;;212.10;228463.00;;;;5044268;28;20172;-58
2022/05/19 10:04:01;;;;;;;8.18;2.53;;;;;212.10;228463.00;;;;5037410;28;20054;-58
2022/05/19 10:06:50;;;;;;;7.30;2.78;;;;;212.10;228463.00;;;;5039559;28;20133;-57
2022/05/19 10:09:31;;;;;;;9.20;3.50;;;13.30;99.90;212.10;228463.00;;;;5045832;28;20478;-59
2022/05/19 10:12:14;;;;;;;10.30;3.28;;;13.40;99.90;212.10;228463.00;;;;5045400;28;20044;-58
2022/05/19 10:14:41;;;;;;;8.55;3.53;;;13.40;99.90;212.10;228463.00;;;;5040336;28;20041;-59
2022/05/19 10:17:08;;;;;;;7.20;3.47;;;;;212.10;228463.00;;;;5045043;28;20033;-56
2022/05/19 10:19:43;;;;;;;7.35;3.63;;;13.60;99.90;212.10;228463.00;;;;5041272;28;20104;-56
2022/05/19 10:23:15;;;;;;;8.80;3.22;;;13.50;99.90;212.10;228463.00;;;;5039453;28;20045;-59
2022/05/19 10:26:04;;;;;;;9.13;2.92;;;13.50;99.90;212.10;228463.00;;;;5022442;28;20498;-58
2022/05/19 10:31:50;;;;;;;5.10;2.88;;;14.00;99.90;212.10;228463.00;;;;5040895;28;20088;-57
2022/05/19 10:34:36;;;;;;;9.90;3.75;;;;;212.10;228463.00;;;;5049018;28;20494;-58
2022/05/19 10:37:17;;;;;;;5.30;3.30;;;14.40;99.90;212.10;228463.00;;;;5048097;28;20045;-57
2022/05/19 10:40:02;;;;;;;5.80;3.10;;;;;212.10;228463.00;;;;5035045;28;20045;-57
2022/05/19 10:43:02;;;;;;;9.93;3.63;;;14.10;99.90;212.10;228463.00;;;;5041954;28;20042;-62
2022/05/19 10:45:40;;;;;;;3.75;2.70;;;14.20;99.90;212.10;228463.00;;;;5040342;28;20038;-62
2022/05/19 10:48:50;;;;;;;6.55;2.85;;;14.30;99.90;212.10;228463.00;;;;5040838;28;20562;-61
2022/05/19 10:52:24;;;;;;;5.85;2.40;;;14.80;99.90;212.10;228463.00;;;;5040642;28;20038;-60
2022/05/19 10:55:22;;;;;;;5.18;2.65;;;15.00;99.90;212.10;228463.00;;;;5040520;28;20411;-61
2022/05/19 10:58:23;;;;;;;4.88;2.83;;;14.90;99.90;212.10;228463.00;;;;5040515;28;20042;-63
2022/05/19 11:01:43;;;;;;;8.77;2.70;;;14.50;99.90;212.10;228463.00;;;;5027257;28;20078;-61
2022/05/19 11:04:45;;;;;;;4.93;2.03;;;14.80;99.90;212.10;228463.00;;;;5025535;28;20116;-61
2022/05/19 11:07:36;;;;;;;;;;;14.80;99.90;212.10;228463.00;;;;5006642;28;20555;-60
2022/05/19 11:10:08;;;;;;;6.20;2.13;;;14.60;99.90;212.10;228463.00;;;;5015603;28;19922;-61
2022/05/19 11:12:47;;;;;;;4.82;2.00;;;;;212.10;228463.00;;;;5025901;28;20042;-61
2022/05/19 11:15:43;;;;;;;7.30;2.20;;;;;212.10;228463.00;;;;5018781;28;20049;-61
2022/05/19 11:18:48;;;;;;;3.65;2.00;;;14.50;99.90;212.10;228463.00;;;;5019524;28;20072;-62
2022/05/19 11:22:04;;;;;;;3.83;2.28;;;14.50;99.90;212.10;228463.00;;;;5020146;28;20046;-61